sensor_id;sensor_type;location;lat;lon;timestamp;temperature;humidity
29031;DHT22;16122;50.236;11.734;2023-04-15T00:00:27;16.60;56.90
29031;DHT22;16122;50.236;11.734;2023-04-15T00:02:56;16.60;56.90
29031;DHT22;16122;50.236;11.734;2023-04-15T00:05:22;16.60;56.90
29031;DHT22;16122;50.236;11.734;2023-04-15T00:07:47;16.60;57.00
29031;DHT22;16122;50.236;11.734;2023-04-15T00:10:13;16.60;57.00
29031;DHT22;16122;50.236;11.734;2023-04-15T00:12:39;16.60;57.00
29031;DHT22;16122;50.236;11.734;2023-04-15T00:15:07;16.60;57.00
29031;DHT22;16122;50.236;11.734;2023-04-15T00:17:34;16.60;57.00
29031;DHT22;16122;50.236;11.734;2023-04-15T00:20:00;16.70;57.00
29031;DHT22;16122;50.236;11.734;2023-04-15T00:22:26;16.60;57.00
29031;DHT22;16122;50.236;11.734;2023-04-15T00:24:53;16.70;57.30
29031;DHT22;16122;50.236;11.734;2023-04-15T00:27:19;16.70;57.30
29031;DHT22;16122;50.236;11.734;2023-04-15T00:29:45;16.70;57.30
29031;DHT22;16122;50.236;11.734;2023-04-15T00:32:11;16.60;57.20
29031;DHT22;16122;50.236;11.734;2023-04-15T00:34:39;16.70;57.30
29031;DHT22;16122;50.236;11.734;2023-04-15T00:37:06;16.60;57.20
29031;DHT22;16122;50.236;11.734;2023-04-15T00:39:32;16.60;57.20
29031;DHT22;16122;50.236;11.734;2023-04-15T00:41:58;16.60;57.20
29031;DHT22;16122;50.236;11.734;2023-04-15T00:44:24;16.60;57.20
29031;DHT22;16122;50.236;11.734;2023-04-15T00:46:51;16.60;57.20
29031;DHT22;16122;50.236;11.734;2023-04-15T00:49:17;16.60;57.20
29031;DHT22;16122;50.236;11.734;2023-04-15T00:51:43;16.70;57.30
29031;DHT22;16122;50.236;11.734;2023-04-15T00:54:10;16.70;57.30
29031;DHT22;16122;50.236;11.734;2023-04-15T00:56:37;16.70;57.30
29031;DHT22;16122;50.236;11.734;2023-04-15T00:59:07;16.70;57.30
29031;DHT22;16122;50.236;11.734;2023-04-15T01:01:34;16.70;57.20
29031;DHT22;16122;50.236;11.734;2023-04-15T01:04:01;16.70;57.20
29031;DHT22;16122;50.236;11.734;2023-04-15T01:06:29;16.70;57.20
29031;DHT22;16122;50.236;11.734;2023-04-15T01:08:56;16.70;57.10
29031;DHT22;16122;50.236;11.734;2023-04-15T01:11:22;16.70;57.10
29031;DHT22;16122;50.236;11.734;2023-04-15T01:13:50;16.70;57.10
29031;DHT22;16122;50.236;11.734;2023-04-15T01:16:17;16.70;57.10
29031;DHT22;16122;50.236;11.734;2023-04-15T01:18:43;16.70;57.10
29031;DHT22;16122;50.236;11.734;2023-04-15T01:21:10;16.70;57.10
29031;DHT22;16122;50.236;11.734;2023-04-15T01:23:37;16.70;57.10
29031;DHT22;16122;50.236;11.734;2023-04-15T01:26:04;16.70;57.00
29031;DHT22;16122;50.236;11.734;2023-04-15T01:28:31;16.70;57.00
29031;DHT22;16122;50.236;11.734;2023-04-15T01:31:13;16.70;57.00
29031;DHT22;16122;50.236;11.734;2023-04-15T01:33:40;16.70;57.00
29031;DHT22;16122;50.236;11.734;2023-04-15T01:36:07;16.70;57.00
29031;DHT22;16122;50.236;11.734;2023-04-15T01:38:35;16.70;57.00
29031;DHT22;16122;50.236;11.734;2023-04-15T01:41:01;16.70;57.00
29031;DHT22;16122;50.236;11.734;2023-04-15T01:43:29;16.70;57.00
29031;DHT22;16122;50.236;11.734;2023-04-15T01:45:55;16.70;56.90
29031;DHT22;16122;50.236;11.734;2023-04-15T01:48:22;16.70;56.90
29031;DHT22;16122;50.236;11.734;2023-04-15T01:50:48;16.70;57.00
29031;DHT22;16122;50.236;11.734;2023-04-15T01:53:14;16.70;56.90
29031;DHT22;16122;50.236;11.734;2023-04-15T01:55:40;16.70;56.90
29031;DHT22;16122;50.236;11.734;2023-04-15T01:58:06;16.70;56.90
29031;DHT22;16122;50.236;11.734;2023-04-15T02:00:32;16.70;56.90
29031;DHT22;16122;50.236;11.734;2023-04-15T02:02:58;16.70;56.90
29031;DHT22;16122;50.236;11.734;2023-04-15T02:05:24;16.70;56.90
29031;DHT22;16122;50.236;11.734;2023-04-15T02:07:51;16.70;56.90
29031;DHT22;16122;50.236;11.734;2023-04-15T02:10:16;16.70;56.80
29031;DHT22;16122;50.236;11.734;2023-04-15T02:12:42;16.70;56.80
29031;DHT22;16122;50.236;11.734;2023-04-15T02:15:09;16.70;56.80
29031;DHT22;16122;50.236;11.734;2023-04-15T02:17:36;16.70;56.80
29031;DHT22;16122;50.236;11.734;2023-04-15T02:20:03;16.70;56.80
29031;DHT22;16122;50.236;11.734;2023-04-15T02:22:31;16.70;56.80
29031;DHT22;16122;50.236;11.734;2023-04-15T02:24:57;16.70;56.80
29031;DHT22;16122;50.236;11.734;2023-04-15T02:27:23;16.70;56.80
29031;DHT22;16122;50.236;11.734;2023-04-15T02:29:49;16.70;56.80
29031;DHT22;16122;50.236;11.734;2023-04-15T02:32:17;16.70;56.80
29031;DHT22;16122;50.236;11.734;2023-04-15T02:34:45;16.70;56.70
29031;DHT22;16122;50.236;11.734;2023-04-15T02:37:13;16.70;56.70
29031;DHT22;16122;50.236;11.734;2023-04-15T02:39:39;16.70;56.80
29031;DHT22;16122;50.236;11.734;2023-04-15T02:42:04;16.70;56.60
29031;DHT22;16122;50.236;11.734;2023-04-15T02:44:31;16.70;56.70
29031;DHT22;16122;50.236;11.734;2023-04-15T02:47:01;16.70;56.70
29031;DHT22;16122;50.236;11.734;2023-04-15T02:49:28;16.70;56.60
29031;DHT22;16122;50.236;11.734;2023-04-15T02:51:55;16.70;56.60
29031;DHT22;16122;50.236;11.734;2023-04-15T02:54:23;16.70;56.60
29031;DHT22;16122;50.236;11.734;2023-04-15T02:56:49;16.70;56.60
29031;DHT22;16122;50.236;11.734;2023-04-15T02:59:15;16.70;56.60
29031;DHT22;16122;50.236;11.734;2023-04-15T03:01:41;16.70;56.50
29031;DHT22;16122;50.236;11.734;2023-04-15T03:04:07;16.70;56.60
29031;DHT22;16122;50.236;11.734;2023-04-15T03:06:34;16.70;56.60
29031;DHT22;16122;50.236;11.734;2023-04-15T03:09:00;16.70;56.50
29031;DHT22;16122;50.236;11.734;2023-04-15T03:11:31;16.70;56.60
29031;DHT22;16122;50.236;11.734;2023-04-15T03:13:57;16.70;56.60
29031;DHT22;16122;50.236;11.734;2023-04-15T03:16:31;16.70;56.50
29031;DHT22;16122;50.236;11.734;2023-04-15T03:18:57;16.70;56.50
29031;DHT22;16122;50.236;11.734;2023-04-15T03:21:23;16.70;56.60
29031;DHT22;16122;50.236;11.734;2023-04-15T03:23:50;16.80;56.60
29031;DHT22;16122;50.236;11.734;2023-04-15T03:26:27;16.70;56.50
29031;DHT22;16122;50.236;11.734;2023-04-15T03:28:55;16.70;56.50
29031;DHT22;16122;50.236;11.734;2023-04-15T03:31:21;16.70;56.50
29031;DHT22;16122;50.236;11.734;2023-04-15T03:33:46;16.70;56.50
29031;DHT22;16122;50.236;11.734;2023-04-15T03:36:12;16.70;56.50
29031;DHT22;16122;50.236;11.734;2023-04-15T03:38:38;16.70;56.50
29031;DHT22;16122;50.236;11.734;2023-04-15T03:41:04;16.70;56.50
29031;DHT22;16122;50.236;11.734;2023-04-15T03:43:30;16.70;56.50
29031;DHT22;16122;50.236;11.734;2023-04-15T03:45:56;16.70;56.40
29031;DHT22;16122;50.236;11.734;2023-04-15T03:48:22;16.70;56.50
29031;DHT22;16122;50.236;11.734;2023-04-15T03:50:48;16.70;56.50
29031;DHT22;16122;50.236;11.734;2023-04-15T03:53:14;16.70;56.40
29031;DHT22;16122;50.236;11.734;2023-04-15T03:55:40;16.70;56.40
29031;DHT22;16122;50.236;11.734;2023-04-15T03:58:06;16.70;56.40
29031;DHT22;16122;50.236;11.734;2023-04-15T04:00:32;16.70;56.30
29031;DHT22;16122;50.236;11.734;2023-04-15T04:02:57;16.70;56.30
29031;DHT22;16122;50.236;11.734;2023-04-15T04:05:23;16.70;56.40
29031;DHT22;16122;50.236;11.734;2023-04-15T04:07:49;16.70;56.30
29031;DHT22;16122;50.236;11.734;2023-04-15T04:10:15;16.70;56.30
29031;DHT22;16122;50.236;11.734;2023-04-15T04:12:41;16.70;56.30
29031;DHT22;16122;50.236;11.734;2023-04-15T04:15:07;16.70;56.30
29031;DHT22;16122;50.236;11.734;2023-04-15T04:17:33;16.70;56.40
29031;DHT22;16122;50.236;11.734;2023-04-15T04:19:59;16.70;56.30
29031;DHT22;16122;50.236;11.734;2023-04-15T04:22:25;16.70;56.30
29031;DHT22;16122;50.236;11.734;2023-04-15T04:24:51;16.70;56.30
29031;DHT22;16122;50.236;11.734;2023-04-15T04:27:16;16.80;56.40
29031;DHT22;16122;50.236;11.734;2023-04-15T04:29:42;16.70;56.30
29031;DHT22;16122;50.236;11.734;2023-04-15T04:32:08;16.70;56.20
29031;DHT22;16122;50.236;11.734;2023-04-15T04:34:34;16.70;56.20
29031;DHT22;16122;50.236;11.734;2023-04-15T04:37:00;16.80;56.40
29031;DHT22;16122;50.236;11.734;2023-04-15T04:39:25;16.70;56.20
29031;DHT22;16122;50.236;11.734;2023-04-15T04:41:51;16.70;56.30
29031;DHT22;16122;50.236;11.734;2023-04-15T04:44:17;16.80;56.40
29031;DHT22;16122;50.236;11.734;2023-04-15T04:46:43;16.80;56.40
29031;DHT22;16122;50.236;11.734;2023-04-15T04:49:09;16.70;56.40
29031;DHT22;16122;50.236;11.734;2023-04-15T04:51:35;16.80;56.60
29031;DHT22;16122;50.236;11.734;2023-04-15T04:54:01;16.80;56.60
29031;DHT22;16122;50.236;11.734;2023-04-15T04:56:27;16.70;56.50
29031;DHT22;16122;50.236;11.734;2023-04-15T04:58:53;16.80;56.60
29031;DHT22;16122;50.236;11.734;2023-04-15T05:01:19;16.80;56.70
29031;DHT22;16122;50.236;11.734;2023-04-15T05:03:45;16.80;56.70
29031;DHT22;16122;50.236;11.734;2023-04-15T05:06:11;16.80;56.80
29031;DHT22;16122;50.236;11.734;2023-04-15T05:08:36;16.80;56.90
29031;DHT22;16122;50.236;11.734;2023-04-15T05:11:03;16.80;56.90
29031;DHT22;16122;50.236;11.734;2023-04-15T05:13:29;16.80;56.90
29031;DHT22;16122;50.236;11.734;2023-04-15T05:15:55;16.80;57.00
29031;DHT22;16122;50.236;11.734;2023-04-15T05:18:21;16.80;57.00
29031;DHT22;16122;50.236;11.734;2023-04-15T05:20:47;16.80;57.10
29031;DHT22;16122;50.236;11.734;2023-04-15T05:23:15;16.90;57.20
29031;DHT22;16122;50.236;11.734;2023-04-15T05:25:41;16.90;57.20
29031;DHT22;16122;50.236;11.734;2023-04-15T05:28:07;16.80;57.20
29031;DHT22;16122;50.236;11.734;2023-04-15T05:30:32;16.80;57.20
29031;DHT22;16122;50.236;11.734;2023-04-15T05:32:58;16.90;57.30
29031;DHT22;16122;50.236;11.734;2023-04-15T05:35:24;16.90;57.30
29031;DHT22;16122;50.236;11.734;2023-04-15T05:37:50;16.90;57.30
29031;DHT22;16122;50.236;11.734;2023-04-15T05:40:16;16.90;57.30
29031;DHT22;16122;50.236;11.734;2023-04-15T05:42:42;16.90;57.40
29031;DHT22;16122;50.236;11.734;2023-04-15T05:45:08;16.90;57.40
29031;DHT22;16122;50.236;11.734;2023-04-15T05:47:35;17.00;58.10
29031;DHT22;16122;50.236;11.734;2023-04-15T05:50:02;16.90;57.50
29031;DHT22;16122;50.236;11.734;2023-04-15T05:52:28;16.90;57.40
29031;DHT22;16122;50.236;11.734;2023-04-15T05:54:54;16.90;57.40
29031;DHT22;16122;50.236;11.734;2023-04-15T05:57:20;16.90;57.40
29031;DHT22;16122;50.236;11.734;2023-04-15T05:59:46;17.00;57.50
29031;DHT22;16122;50.236;11.734;2023-04-15T06:02:12;16.90;58.10
29031;DHT22;16122;50.236;11.734;2023-04-15T06:04:38;17.00;57.50
29031;DHT22;16122;50.236;11.734;2023-04-15T06:07:04;17.00;57.50
29031;DHT22;16122;50.236;11.734;2023-04-15T06:09:29;17.00;57.50
29031;DHT22;16122;50.236;11.734;2023-04-15T06:11:55;17.00;57.50
29031;DHT22;16122;50.236;11.734;2023-04-15T06:14:24;17.00;57.50
29031;DHT22;16122;50.236;11.734;2023-04-15T06:16:50;17.00;57.40
29031;DHT22;16122;50.236;11.734;2023-04-15T06:19:16;17.00;57.30
29031;DHT22;16122;50.236;11.734;2023-04-15T06:21:41;17.00;57.50
29031;DHT22;16122;50.236;11.734;2023-04-15T06:24:08;17.00;57.50
29031;DHT22;16122;50.236;11.734;2023-04-15T06:26:33;17.00;57.50
29031;DHT22;16122;50.236;11.734;2023-04-15T06:28:59;17.00;57.60
29031;DHT22;16122;50.236;11.734;2023-04-15T06:31:25;17.00;57.70
29031;DHT22;16122;50.236;11.734;2023-04-15T06:33:51;17.00;57.80
29031;DHT22;16122;50.236;11.734;2023-04-15T06:36:17;17.10;57.90
29031;DHT22;16122;50.236;11.734;2023-04-15T06:38:43;17.10;58.10
29031;DHT22;16122;50.236;11.734;2023-04-15T06:41:08;17.10;58.10
29031;DHT22;16122;50.236;11.734;2023-04-15T06:43:34;17.10;58.10
29031;DHT22;16122;50.236;11.734;2023-04-15T06:46:00;17.10;58.10
29031;DHT22;16122;50.236;11.734;2023-04-15T06:48:26;17.10;58.20
29031;DHT22;16122;50.236;11.734;2023-04-15T06:50:52;17.10;58.30
29031;DHT22;16122;50.236;11.734;2023-04-15T06:53:18;17.10;58.20
29031;DHT22;16122;50.236;11.734;2023-04-15T06:55:44;17.10;58.20
29031;DHT22;16122;50.236;11.734;2023-04-15T06:58:10;17.10;58.20
29031;DHT22;16122;50.236;11.734;2023-04-15T07:00:36;17.10;58.30
29031;DHT22;16122;50.236;11.734;2023-04-15T07:03:04;17.10;58.20
29031;DHT22;16122;50.236;11.734;2023-04-15T07:05:30;17.10;58.20
29031;DHT22;16122;50.236;11.734;2023-04-15T07:07:57;17.10;58.20
29031;DHT22;16122;50.236;11.734;2023-04-15T07:10:22;17.00;58.10
29031;DHT22;16122;50.236;11.734;2023-04-15T07:12:48;17.00;58.10
29031;DHT22;16122;50.236;11.734;2023-04-15T07:15:17;17.00;58.10
29031;DHT22;16122;50.236;11.734;2023-04-15T07:17:43;17.00;58.00
29031;DHT22;16122;50.236;11.734;2023-04-15T07:20:09;17.00;58.00
29031;DHT22;16122;50.236;11.734;2023-04-15T07:22:35;17.00;58.00
29031;DHT22;16122;50.236;11.734;2023-04-15T07:25:00;17.00;57.90
29031;DHT22;16122;50.236;11.734;2023-04-15T07:27:26;17.00;57.90
29031;DHT22;16122;50.236;11.734;2023-04-15T07:29:52;17.00;57.90
29031;DHT22;16122;50.236;11.734;2023-04-15T07:32:18;17.00;57.90
29031;DHT22;16122;50.236;11.734;2023-04-15T07:34:44;17.00;57.80
29031;DHT22;16122;50.236;11.734;2023-04-15T07:37:10;17.00;57.80
29031;DHT22;16122;50.236;11.734;2023-04-15T07:39:36;17.00;57.80
29031;DHT22;16122;50.236;11.734;2023-04-15T07:42:02;17.00;58.40
29031;DHT22;16122;50.236;11.734;2023-04-15T07:44:29;17.00;57.70
29031;DHT22;16122;50.236;11.734;2023-04-15T07:46:55;17.00;57.70
29031;DHT22;16122;50.236;11.734;2023-04-15T07:49:21;17.00;57.80
29031;DHT22;16122;50.236;11.734;2023-04-15T07:51:48;17.00;57.70
29031;DHT22;16122;50.236;11.734;2023-04-15T07:54:14;17.00;57.70
29031;DHT22;16122;50.236;11.734;2023-04-15T07:56:41;17.00;57.60
29031;DHT22;16122;50.236;11.734;2023-04-15T07:59:07;17.00;57.50
29031;DHT22;16122;50.236;11.734;2023-04-15T08:01:34;17.00;57.60
29031;DHT22;16122;50.236;11.734;2023-04-15T08:04:00;17.00;57.60
29031;DHT22;16122;50.236;11.734;2023-04-15T08:06:26;17.00;57.50
29031;DHT22;16122;50.236;11.734;2023-04-15T08:08:52;17.00;57.50
29031;DHT22;16122;50.236;11.734;2023-04-15T08:11:20;16.90;57.50
29031;DHT22;16122;50.236;11.734;2023-04-15T08:13:46;16.90;57.50
29031;DHT22;16122;50.236;11.734;2023-04-15T08:16:23;16.90;57.40
29031;DHT22;16122;50.236;11.734;2023-04-15T08:18:50;16.90;57.40
29031;DHT22;16122;50.236;11.734;2023-04-15T08:21:18;16.90;57.40
29031;DHT22;16122;50.236;11.734;2023-04-15T08:23:45;16.90;57.50
29031;DHT22;16122;50.236;11.734;2023-04-15T08:26:11;16.90;57.20
29031;DHT22;16122;50.236;11.734;2023-04-15T08:28:39;16.90;57.00
29031;DHT22;16122;50.236;11.734;2023-04-15T08:31:05;16.80;56.90
29031;DHT22;16122;50.236;11.734;2023-04-15T08:33:31;16.90;57.00
29031;DHT22;16122;50.236;11.734;2023-04-15T08:35:57;16.80;56.90
29031;DHT22;16122;50.236;11.734;2023-04-15T08:38:23;16.90;56.90
29031;DHT22;16122;50.236;11.734;2023-04-15T08:40:49;16.90;57.00
29031;DHT22;16122;50.236;11.734;2023-04-15T08:43:21;16.90;57.20
29031;DHT22;16122;50.236;11.734;2023-04-15T08:45:53;16.90;57.40
29031;DHT22;16122;50.236;11.734;2023-04-15T08:48:20;16.90;57.70
29031;DHT22;16122;50.236;11.734;2023-04-15T08:50:47;16.90;57.80
29031;DHT22;16122;50.236;11.734;2023-04-15T08:53:14;16.90;57.90
29031;DHT22;16122;50.236;11.734;2023-04-15T08:55:45;16.90;58.00
29031;DHT22;16122;50.236;11.734;2023-04-15T08:58:12;16.90;58.10
29031;DHT22;16122;50.236;11.734;2023-04-15T09:00:41;16.90;57.90
29031;DHT22;16122;50.236;11.734;2023-04-15T09:03:07;16.90;58.00
29031;DHT22;16122;50.236;11.734;2023-04-15T09:05:35;16.90;57.80
29031;DHT22;16122;50.236;11.734;2023-04-15T09:08:02;16.90;57.80
29031;DHT22;16122;50.236;11.734;2023-04-15T09:10:28;17.00;57.80
29031;DHT22;16122;50.236;11.734;2023-04-15T09:12:56;17.00;57.80
29031;DHT22;16122;50.236;11.734;2023-04-15T09:15:24;17.00;57.70
29031;DHT22;16122;50.236;11.734;2023-04-15T09:17:50;17.00;57.80
29031;DHT22;16122;50.236;11.734;2023-04-15T09:20:16;17.10;58.00
29031;DHT22;16122;50.236;11.734;2023-04-15T09:22:47;17.10;57.60
29031;DHT22;16122;50.236;11.734;2023-04-15T09:27:56;17.20;57.70
29031;DHT22;16122;50.236;11.734;2023-04-15T09:30:22;17.20;57.50
29031;DHT22;16122;50.236;11.734;2023-04-15T09:32:53;17.10;57.40
29031;DHT22;16122;50.236;11.734;2023-04-15T09:35:20;17.20;57.70
29031;DHT22;16122;50.236;11.734;2023-04-15T09:37:50;17.20;58.00
29031;DHT22;16122;50.236;11.734;2023-04-15T09:40:39;17.20;58.00
29031;DHT22;16122;50.236;11.734;2023-04-15T09:43:06;17.20;58.30
29031;DHT22;16122;50.236;11.734;2023-04-15T09:45:33;17.20;58.30
29031;DHT22;16122;50.236;11.734;2023-04-15T09:48:15;17.20;58.30
29031;DHT22;16122;50.236;11.734;2023-04-15T09:50:42;17.20;58.40
29031;DHT22;16122;50.236;11.734;2023-04-15T09:53:09;17.20;58.50
29031;DHT22;16122;50.236;11.734;2023-04-15T09:55:36;17.20;58.90
29031;DHT22;16122;50.236;11.734;2023-04-15T09:58:08;17.20;59.10
29031;DHT22;16122;50.236;11.734;2023-04-15T10:00:35;17.20;60.00
29031;DHT22;16122;50.236;11.734;2023-04-15T10:03:02;17.20;60.40
29031;DHT22;16122;50.236;11.734;2023-04-15T10:05:30;17.30;60.60
29031;DHT22;16122;50.236;11.734;2023-04-15T10:07:57;17.30;60.60
29031;DHT22;16122;50.236;11.734;2023-04-15T10:10:23;17.30;60.90
29031;DHT22;16122;50.236;11.734;2023-04-15T10:12:51;17.30;61.20
29031;DHT22;16122;50.236;11.734;2023-04-15T10:15:18;17.30;60.70
29031;DHT22;16122;50.236;11.734;2023-04-15T10:17:44;17.30;61.90
29031;DHT22;16122;50.236;11.734;2023-04-15T10:20:12;17.30;62.50
29031;DHT22;16122;50.236;11.734;2023-04-15T10:22:40;17.30;62.70
29031;DHT22;16122;50.236;11.734;2023-04-15T10:25:07;17.30;63.00
29031;DHT22;16122;50.236;11.734;2023-04-15T10:27:33;17.30;63.40
29031;DHT22;16122;50.236;11.734;2023-04-15T10:30:00;17.30;63.80
29031;DHT22;16122;50.236;11.734;2023-04-15T10:32:28;17.30;64.50
29031;DHT22;16122;50.236;11.734;2023-04-15T10:34:55;17.30;64.50
29031;DHT22;16122;50.236;11.734;2023-04-15T10:37:22;17.30;64.30
29031;DHT22;16122;50.236;11.734;2023-04-15T10:39:57;17.30;64.30
29031;DHT22;16122;50.236;11.734;2023-04-15T10:42:23;17.30;64.00
29031;DHT22;16122;50.236;11.734;2023-04-15T10:44:50;17.30;63.90
29031;DHT22;16122;50.236;11.734;2023-04-15T10:47:21;17.20;63.70
29031;DHT22;16122;50.236;11.734;2023-04-15T10:49:51;17.20;63.60
29031;DHT22;16122;50.236;11.734;2023-04-15T10:52:26;17.20;63.60
29031;DHT22;16122;50.236;11.734;2023-04-15T10:55:22;17.20;63.60
29031;DHT22;16122;50.236;11.734;2023-04-15T10:57:53;17.20;63.70
29031;DHT22;16122;50.236;11.734;2023-04-15T11:00:23;17.20;63.70
29031;DHT22;16122;50.236;11.734;2023-04-15T11:02:53;17.20;63.60
29031;DHT22;16122;50.236;11.734;2023-04-15T11:08:07;17.20;63.80
29031;DHT22;16122;50.236;11.734;2023-04-15T11:13:04;17.20;63.90
29031;DHT22;16122;50.236;11.734;2023-04-15T11:15:40;17.20;63.80
29031;DHT22;16122;50.236;11.734;2023-04-15T11:20:44;17.20;63.80
29031;DHT22;16122;50.236;11.734;2023-04-15T11:23:10;17.30;61.90
29031;DHT22;16122;50.236;11.734;2023-04-15T11:25:36;17.40;60.60
29031;DHT22;16122;50.236;11.734;2023-04-15T11:28:03;17.40;59.90
29031;DHT22;16122;50.236;11.734;2023-04-15T11:30:33;17.50;59.80
29031;DHT22;16122;50.236;11.734;2023-04-15T11:33:00;17.50;59.40
29031;DHT22;16122;50.236;11.734;2023-04-15T11:35:28;17.50;59.50
29031;DHT22;16122;50.236;11.734;2023-04-15T11:37:54;17.50;59.70
29031;DHT22;16122;50.236;11.734;2023-04-15T11:40:24;17.50;59.70
29031;DHT22;16122;50.236;11.734;2023-04-15T11:43:09;17.40;60.10
29031;DHT22;16122;50.236;11.734;2023-04-15T11:45:36;17.30;60.80
29031;DHT22;16122;50.236;11.734;2023-04-15T11:48:09;17.20;61.00
29031;DHT22;16122;50.236;11.734;2023-04-15T11:50:36;17.20;61.30
29031;DHT22;16122;50.236;11.734;2023-04-15T11:53:04;17.20;61.60
29031;DHT22;16122;50.236;11.734;2023-04-15T11:55:31;17.20;61.70
29031;DHT22;16122;50.236;11.734;2023-04-15T12:00:35;17.20;62.00
29031;DHT22;16122;50.236;11.734;2023-04-15T12:03:18;17.20;62.20
29031;DHT22;16122;50.236;11.734;2023-04-15T12:09:13;17.20;62.30
29031;DHT22;16122;50.236;11.734;2023-04-15T12:11:50;17.20;62.60
29031;DHT22;16122;50.236;11.734;2023-04-15T12:14:27;17.10;62.90
29031;DHT22;16122;50.236;11.734;2023-04-15T12:16:58;17.20;63.00
29031;DHT22;16122;50.236;11.734;2023-04-15T12:19:30;17.20;62.90
29031;DHT22;16122;50.236;11.734;2023-04-15T12:22:01;17.20;62.80
29031;DHT22;16122;50.236;11.734;2023-04-15T12:24:30;17.20;62.80
29031;DHT22;16122;50.236;11.734;2023-04-15T12:27:01;17.20;63.10
29031;DHT22;16122;50.236;11.734;2023-04-15T12:29:29;17.20;63.90
29031;DHT22;16122;50.236;11.734;2023-04-15T12:32:07;17.20;64.20
29031;DHT22;16122;50.236;11.734;2023-04-15T12:35:01;17.20;64.50
29031;DHT22;16122;50.236;11.734;2023-04-15T12:37:26;17.20;65.20
29031;DHT22;16122;50.236;11.734;2023-04-15T12:39:52;17.20;65.20
29031;DHT22;16122;50.236;11.734;2023-04-15T12:42:19;17.20;65.70
29031;DHT22;16122;50.236;11.734;2023-04-15T12:44:45;17.20;65.60
29031;DHT22;16122;50.236;11.734;2023-04-15T12:47:11;17.20;65.80
29031;DHT22;16122;50.236;11.734;2023-04-15T12:49:37;17.10;65.20
29031;DHT22;16122;50.236;11.734;2023-04-15T12:52:04;17.10;64.60
29031;DHT22;16122;50.236;11.734;2023-04-15T12:54:30;17.10;64.30
29031;DHT22;16122;50.236;11.734;2023-04-15T12:56:57;17.00;64.10
29031;DHT22;16122;50.236;11.734;2023-04-15T12:59:23;17.00;63.70
29031;DHT22;16122;50.236;11.734;2023-04-15T13:01:50;17.00;63.50
29031;DHT22;16122;50.236;11.734;2023-04-15T13:04:18;17.00;63.20
29031;DHT22;16122;50.236;11.734;2023-04-15T13:06:44;17.00;63.10
29031;DHT22;16122;50.236;11.734;2023-04-15T13:09:10;17.10;63.00
29031;DHT22;16122;50.236;11.734;2023-04-15T13:11:36;17.00;62.80
29031;DHT22;16122;50.236;11.734;2023-04-15T13:14:04;17.00;62.80
29031;DHT22;16122;50.236;11.734;2023-04-15T13:16:30;17.00;62.80
29031;DHT22;16122;50.236;11.734;2023-04-15T13:18:58;17.00;62.80
29031;DHT22;16122;50.236;11.734;2023-04-15T13:21:24;17.00;62.70
29031;DHT22;16122;50.236;11.734;2023-04-15T13:23:52;17.00;62.80
29031;DHT22;16122;50.236;11.734;2023-04-15T13:26:18;17.00;62.80
29031;DHT22;16122;50.236;11.734;2023-04-15T13:28:44;17.00;62.70
29031;DHT22;16122;50.236;11.734;2023-04-15T13:31:10;17.00;62.60
29031;DHT22;16122;50.236;11.734;2023-04-15T13:33:36;17.00;62.60
29031;DHT22;16122;50.236;11.734;2023-04-15T13:36:03;17.00;62.60
29031;DHT22;16122;50.236;11.734;2023-04-15T13:38:28;17.00;62.70
29031;DHT22;16122;50.236;11.734;2023-04-15T13:40:54;17.00;62.70
29031;DHT22;16122;50.236;11.734;2023-04-15T13:43:20;17.00;62.70
29031;DHT22;16122;50.236;11.734;2023-04-15T13:45:46;17.00;62.60
29031;DHT22;16122;50.236;11.734;2023-04-15T13:48:12;17.00;62.60
29031;DHT22;16122;50.236;11.734;2023-04-15T13:50:38;16.90;62.60
29031;DHT22;16122;50.236;11.734;2023-04-15T13:53:05;16.90;62.50
29031;DHT22;16122;50.236;11.734;2023-04-15T13:55:31;17.00;62.70
29031;DHT22;16122;50.236;11.734;2023-04-15T13:57:59;16.90;62.40
29031;DHT22;16122;50.236;11.734;2023-04-15T14:00:25;16.90;62.40
29031;DHT22;16122;50.236;11.734;2023-04-15T14:02:51;16.90;62.30
29031;DHT22;16122;50.236;11.734;2023-04-15T14:05:17;16.90;62.30
29031;DHT22;16122;50.236;11.734;2023-04-15T14:07:43;16.90;62.30
29031;DHT22;16122;50.236;11.734;2023-04-15T14:10:09;16.90;62.20
29031;DHT22;16122;50.236;11.734;2023-04-15T14:12:35;16.80;62.10
29031;DHT22;16122;50.236;11.734;2023-04-15T14:15:01;16.80;62.20
29031;DHT22;16122;50.236;11.734;2023-04-15T14:17:26;16.90;62.30
29031;DHT22;16122;50.236;11.734;2023-04-15T14:19:52;16.90;62.20
29031;DHT22;16122;50.236;11.734;2023-04-15T14:22:18;16.90;62.20
29031;DHT22;16122;50.236;11.734;2023-04-15T14:24:44;16.80;62.10
29031;DHT22;16122;50.236;11.734;2023-04-15T14:27:10;16.90;62.20
29031;DHT22;16122;50.236;11.734;2023-04-15T14:29:37;16.80;62.00
29031;DHT22;16122;50.236;11.734;2023-04-15T14:32:03;16.80;62.00
29031;DHT22;16122;50.236;11.734;2023-04-15T14:34:29;16.80;61.90
29031;DHT22;16122;50.236;11.734;2023-04-15T14:36:55;16.80;62.00
29031;DHT22;16122;50.236;11.734;2023-04-15T14:39:21;16.80;61.90
29031;DHT22;16122;50.236;11.734;2023-04-15T14:41:47;16.80;61.90
29031;DHT22;16122;50.236;11.734;2023-04-15T14:44:13;16.80;62.00
29031;DHT22;16122;50.236;11.734;2023-04-15T14:46:39;16.80;61.90
29031;DHT22;16122;50.236;11.734;2023-04-15T14:49:06;16.80;61.90
29031;DHT22;16122;50.236;11.734;2023-04-15T14:51:32;16.80;61.90
29031;DHT22;16122;50.236;11.734;2023-04-15T14:53:58;16.80;61.80
29031;DHT22;16122;50.236;11.734;2023-04-15T14:56:23;16.70;61.70
29031;DHT22;16122;50.236;11.734;2023-04-15T14:58:49;16.70;61.70
29031;DHT22;16122;50.236;11.734;2023-04-15T15:01:17;16.70;61.70
29031;DHT22;16122;50.236;11.734;2023-04-15T15:03:43;16.70;61.70
29031;DHT22;16122;50.236;11.734;2023-04-15T15:06:09;16.70;61.60
29031;DHT22;16122;50.236;11.734;2023-04-15T15:08:35;16.80;61.70
29031;DHT22;16122;50.236;11.734;2023-04-15T15:11:01;16.80;61.70
29031;DHT22;16122;50.236;11.734;2023-04-15T15:13:27;16.70;61.50
29031;DHT22;16122;50.236;11.734;2023-04-15T15:15:53;16.70;61.60
29031;DHT22;16122;50.236;11.734;2023-04-15T15:18:19;16.70;61.60
29031;DHT22;16122;50.236;11.734;2023-04-15T15:20:45;16.70;61.50
29031;DHT22;16122;50.236;11.734;2023-04-15T15:23:11;16.70;61.50
29031;DHT22;16122;50.236;11.734;2023-04-15T15:25:37;16.70;61.50
29031;DHT22;16122;50.236;11.734;2023-04-15T15:28:03;16.70;61.50
29031;DHT22;16122;50.236;11.734;2023-04-15T15:30:29;16.60;61.50